createdAt,value
2023-05-02T00:01:26.078Z,1.60
2023-05-02T00:03:53.896Z,1.47
2023-05-02T00:06:21.364Z,1.53
2023-05-02T00:08:49.863Z,1.37
2023-05-02T00:11:16.794Z,1.17
2023-05-02T00:13:44.827Z,1.30
2023-05-02T00:16:12.068Z,1.67
2023-05-02T00:18:39.647Z,1.30
2023-05-02T00:21:10.334Z,1.70
2023-05-02T00:23:37.443Z,1.37
2023-05-02T00:26:04.470Z,1.60
2023-05-02T00:28:32.124Z,1.60
2023-05-02T00:30:59.431Z,1.90
2023-05-02T00:33:26.280Z,1.77
2023-05-02T00:35:53.476Z,2.00
2023-05-02T00:38:20.565Z,1.60
2023-05-02T00:40:49.242Z,1.53
2023-05-02T00:43:16.474Z,2.30
2023-05-02T00:45:44.058Z,1.87
2023-05-02T00:48:11.706Z,1.80
2023-05-02T00:50:40.613Z,1.40
2023-05-02T00:53:08.149Z,1.43
2023-05-02T00:55:35.075Z,1.77
2023-05-02T00:58:04.964Z,1.73
2023-05-02T01:00:44.060Z,1.40
2023-05-02T01:03:37.883Z,1.37
2023-05-02T01:06:41.747Z,1.53
2023-05-02T01:09:23.458Z,1.63
2023-05-02T01:12:03.587Z,2.10
2023-05-02T01:14:33.473Z,1.77
2023-05-02T01:17:04.504Z,2.13
2023-05-02T01:19:40.910Z,1.87
2023-05-02T01:22:11.823Z,2.40
2023-05-02T01:25:12.772Z,1.90
2023-05-02T01:28:02.264Z,2.20
2023-05-02T01:30:32.525Z,1.70
2023-05-02T01:32:59.498Z,1.60
2023-05-02T01:35:27.590Z,1.53
2023-05-02T01:37:55.035Z,2.00
2023-05-02T01:40:22.828Z,1.20
2023-05-02T01:42:50.756Z,1.60
2023-05-02T01:45:17.708Z,1.40
2023-05-02T01:47:45.027Z,1.80
2023-05-02T01:50:13.698Z,1.33
2023-05-02T01:52:41.027Z,1.60
2023-05-02T01:55:09.569Z,1.53
2023-05-02T01:57:37.049Z,1.87
2023-05-02T02:00:04.512Z,2.00
2023-05-02T02:02:31.345Z,1.57
2023-05-02T02:04:58.115Z,1.70
2023-05-02T02:07:25.507Z,1.23
2023-05-02T02:09:53.102Z,1.50
2023-05-02T02:12:24.771Z,1.60
2023-05-02T02:14:57.896Z,1.50
2023-05-02T02:17:37.463Z,1.37
2023-05-02T02:20:07.798Z,1.83
2023-05-02T02:22:37.368Z,1.70
2023-05-02T02:25:08.211Z,1.23
2023-05-02T02:27:35.810Z,1.33
2023-05-02T02:30:03.840Z,1.63
2023-05-02T02:32:31.378Z,1.70
2023-05-02T02:34:59.535Z,1.10
2023-05-02T02:37:30.951Z,1.10
2023-05-02T02:40:20.428Z,1.60
2023-05-02T02:42:47.240Z,1.40
2023-05-02T02:45:38.341Z,1.30
2023-05-02T02:48:22.678Z,1.40
2023-05-02T02:51:13.329Z,1.60
2023-05-02T02:53:47.405Z,1.57
2023-05-02T02:56:16.572Z,1.50
2023-05-02T02:59:06.725Z,1.50
2023-05-02T03:01:33.756Z,1.50
2023-05-02T03:04:01.290Z,1.70
2023-05-02T03:06:28.971Z,1.50
2023-05-02T03:08:56.613Z,1.47
2023-05-02T03:11:24.175Z,1.77
2023-05-02T03:13:53.228Z,1.70
2023-05-02T03:16:50.712Z,1.80
2023-05-02T03:19:17.871Z,1.50
2023-05-02T03:21:44.742Z,1.50
2023-05-02T03:24:11.973Z,1.37
2023-05-02T03:26:39.275Z,1.30
2023-05-02T03:29:06.799Z,1.47
2023-05-02T03:31:34.479Z,1.87
2023-05-02T03:34:02.178Z,1.47
2023-05-02T03:36:29.996Z,1.53
2023-05-02T03:38:57.492Z,1.87
2023-05-02T03:41:25.046Z,2.30
2023-05-02T03:43:52.629Z,2.30
2023-05-02T03:46:19.519Z,3.53
2023-05-02T03:48:47.392Z,3.60
2023-05-02T03:51:15.277Z,3.10
2023-05-02T03:53:43.083Z,2.43
2023-05-02T03:56:10.688Z,2.53
2023-05-02T03:58:38.319Z,2.20
2023-05-02T04:01:15.718Z,2.30
2023-05-02T04:03:43.227Z,1.97
2023-05-02T04:06:10.475Z,1.70
2023-05-02T04:08:37.344Z,1.50
2023-05-02T04:11:04.545Z,1.77
2023-05-02T04:13:32.034Z,1.67
2023-05-02T04:15:58.919Z,1.90
2023-05-02T04:18:26.780Z,1.90
2023-05-02T04:20:53.759Z,2.07
2023-05-02T04:23:21.174Z,2.20
2023-05-02T04:25:54.411Z,1.70
2023-05-02T04:28:22.578Z,1.80
2023-05-02T04:30:50.334Z,2.00
2023-05-02T04:33:18.643Z,1.80
2023-05-02T04:35:45.540Z,1.80
2023-05-02T04:38:13.026Z,1.70
2023-05-02T04:40:40.489Z,1.80
2023-05-02T04:43:07.976Z,2.07
2023-05-02T04:45:38.047Z,1.30
2023-05-02T04:48:05.263Z,2.03
2023-05-02T04:50:35.140Z,2.40
2023-05-02T04:53:02.014Z,1.70
2023-05-02T04:55:28.889Z,1.60
2023-05-02T04:57:55.876Z,1.60
2023-05-02T05:00:22.796Z,1.53
2023-05-02T05:02:50.028Z,1.83
2023-05-02T05:05:17.215Z,2.00
2023-05-02T05:07:50.157Z,1.90
2023-05-02T05:10:17.146Z,2.30
2023-05-02T05:12:44.386Z,1.40
2023-05-02T05:15:11.977Z,1.53
2023-05-02T05:17:39.216Z,1.40
2023-05-02T05:20:08.914Z,1.70
2023-05-02T05:22:42.759Z,1.20
2023-05-02T05:25:10.424Z,1.63
2023-05-02T05:27:38.080Z,1.10
2023-05-02T05:30:06.504Z,1.80
2023-05-02T05:32:34.050Z,1.90
2023-05-02T05:35:01.106Z,1.63
2023-05-02T05:37:28.597Z,1.50
2023-05-02T05:39:55.533Z,1.67
2023-05-02T05:42:22.714Z,1.83
2023-05-02T05:44:49.608Z,1.53
2023-05-02T05:47:22.302Z,1.30
2023-05-02T05:49:55.509Z,1.60
2023-05-02T05:52:23.017Z,1.23
2023-05-02T05:54:49.897Z,1.70
2023-05-02T05:57:17.468Z,1.47
2023-05-02T05:59:45.799Z,1.63
2023-05-02T06:02:13.583Z,1.60
2023-05-02T06:04:41.138Z,1.20
2023-05-02T06:07:08.893Z,1.30
2023-05-02T06:09:36.746Z,1.50
2023-05-02T06:12:03.948Z,1.40
2023-05-02T06:14:30.884Z,1.40
2023-05-02T06:17:00.031Z,1.03
2023-05-02T06:19:29.153Z,1.10
2023-05-02T06:21:56.018Z,1.10
2023-05-02T06:24:23.031Z,0.90
2023-05-02T06:26:51.701Z,1.40
2023-05-02T06:29:18.491Z,1.57
2023-05-02T06:31:45.464Z,1.90
2023-05-02T06:34:12.344Z,1.30
2023-05-02T06:36:39.509Z,1.37
2023-05-02T06:39:07.053Z,1.47
2023-05-02T06:41:33.906Z,1.30
2023-05-02T06:44:00.849Z,1.13
2023-05-02T06:46:33.685Z,1.10
2023-05-02T06:49:00.558Z,1.10
2023-05-02T06:51:27.868Z,0.70
2023-05-02T06:53:54.732Z,1.20
2023-05-02T06:56:21.854Z,0.90
2023-05-02T06:58:48.762Z,0.67
2023-05-02T07:01:15.724Z,0.60
2023-05-02T07:03:42.603Z,0.47
2023-05-02T07:06:10.452Z,0.60
2023-05-02T07:08:38.303Z,0.70
2023-05-02T07:11:05.186Z,0.93
2023-05-02T07:13:32.034Z,0.70
2023-05-02T07:15:58.927Z,0.50
2023-05-02T07:18:25.910Z,0.50
2023-05-02T07:20:52.794Z,0.50
2023-05-02T07:23:20.761Z,0.40
2023-05-02T07:25:48.452Z,0.30
2023-05-02T07:28:15.359Z,0.37
2023-05-02T07:30:42.523Z,0.30
2023-05-02T07:33:09.366Z,0.30
2023-05-02T07:35:36.301Z,0.37
2023-05-02T07:38:03.870Z,0.30
2023-05-02T07:40:31.589Z,0.20
2023-05-02T07:42:59.930Z,0.27
2023-05-02T07:45:27.509Z,0.30
2023-05-02T07:47:54.364Z,0.20
2023-05-02T07:50:21.194Z,0.30
2023-05-02T07:52:48.056Z,0.20
2023-05-02T07:55:15.261Z,0.30
2023-05-02T07:57:42.356Z,0.70
2023-05-02T08:00:10.309Z,0.30
2023-05-02T08:02:39.219Z,0.20
2023-05-02T08:05:06.879Z,0.30
2023-05-02T08:07:35.896Z,0.40
2023-05-02T08:10:03.845Z,0.70
2023-05-02T08:12:32.185Z,0.57
2023-05-02T08:14:59.892Z,0.73
2023-05-02T08:17:29.258Z,0.90
2023-05-02T08:19:58.542Z,1.47
2023-05-02T08:22:25.465Z,1.40
2023-05-02T08:24:52.228Z,1.30
2023-05-02T08:27:19.052Z,0.70
2023-05-02T08:29:45.988Z,1.20
2023-05-02T08:32:13.435Z,0.80
2023-05-02T08:34:40.363Z,0.70
2023-05-02T08:37:10.706Z,0.67
2023-05-02T08:39:37.582Z,0.40
2023-05-02T08:42:10.697Z,0.33
2023-05-02T08:44:37.827Z,0.33
2023-05-02T08:47:06.859Z,0.50
2023-05-02T08:49:33.827Z,0.50
2023-05-02T08:52:02.168Z,0.30
2023-05-02T08:54:29.053Z,0.33
2023-05-02T08:56:56.485Z,0.30
2023-05-02T08:59:24.124Z,0.40
2023-05-02T09:01:58.427Z,0.30
2023-05-02T09:04:32.478Z,0.33
2023-05-02T09:06:59.548Z,0.30
2023-05-02T09:09:27.023Z,0.30
2023-05-02T09:11:53.974Z,0.40
2023-05-02T09:14:21.076Z,0.40
2023-05-02T09:16:47.915Z,0.60
2023-05-02T09:19:25.080Z,0.30
2023-05-02T09:21:51.918Z,0.40
2023-05-02T09:24:20.370Z,0.40
2023-05-02T09:27:16.805Z,0.40
2023-05-02T09:29:46.838Z,0.43
2023-05-02T09:32:14.580Z,0.50
2023-05-02T09:34:42.376Z,0.50
2023-05-02T09:37:11.515Z,0.43
2023-05-02T09:39:38.626Z,0.37
2023-05-02T09:42:06.486Z,0.40
2023-05-02T09:44:37.345Z,0.40
2023-05-02T09:47:04.222Z,0.40
2023-05-02T09:49:45.658Z,0.60
2023-05-02T09:52:17.457Z,0.50
2023-05-02T09:54:47.104Z,0.57
2023-05-02T09:57:14.739Z,0.40
2023-05-02T09:59:42.569Z,0.40
2023-05-02T10:02:11.624Z,0.50
2023-05-02T10:04:39.784Z,0.40
2023-05-02T10:07:10.580Z,0.80
2023-05-02T10:09:39.052Z,0.60
2023-05-02T10:12:08.452Z,0.60
2023-05-02T10:14:39.543Z,0.60
2023-05-02T10:17:31.661Z,0.60
2023-05-02T10:20:04.776Z,0.57
2023-05-02T10:22:32.035Z,0.80
2023-05-02T10:24:59.059Z,0.70
2023-05-02T10:27:26.224Z,0.70
2023-05-02T10:29:53.683Z,0.70
2023-05-02T10:32:23.380Z,0.80
2023-05-02T10:34:50.788Z,0.60
2023-05-02T10:37:18.590Z,0.80
2023-05-02T10:39:46.896Z,0.70
2023-05-02T10:42:14.612Z,0.73
2023-05-02T10:44:41.719Z,0.70
2023-05-02T10:47:25.056Z,0.63
2023-05-02T10:50:03.082Z,1.13
2023-05-02T10:52:35.494Z,0.80
2023-05-02T10:55:18.795Z,1.50
2023-05-02T10:58:06.117Z,1.27
2023-05-02T11:00:34.711Z,1.37
2023-05-02T11:03:02.759Z,1.00
2023-05-02T11:05:31.083Z,1.17
2023-05-02T11:08:16.836Z,1.33
2023-05-02T11:10:46.393Z,0.93
2023-05-02T11:13:14.062Z,1.30
2023-05-02T11:15:41.812Z,1.00
2023-05-02T11:18:13.083Z,1.20
2023-05-02T11:20:40.729Z,1.30
2023-05-02T11:23:26.260Z,1.47
2023-05-02T11:25:58.153Z,1.50
2023-05-02T11:28:38.208Z,1.73
2023-05-02T11:31:05.984Z,2.23
2023-05-02T11:33:33.455Z,1.50
2023-05-02T11:36:01.764Z,1.20
2023-05-02T11:38:37.660Z,1.20
2023-05-02T11:41:05.460Z,1.40
2023-05-02T11:43:32.761Z,1.50
2023-05-02T11:46:01.919Z,1.57
2023-05-02T11:48:29.250Z,1.90
2023-05-02T11:51:05.673Z,1.40
2023-05-02T11:53:33.412Z,1.60
2023-05-02T11:56:04.837Z,1.53
2023-05-02T11:58:33.751Z,1.60
2023-05-02T12:01:21.439Z,1.40
2023-05-02T12:03:49.532Z,1.13
2023-05-02T12:06:19.394Z,1.13
2023-05-02T12:08:46.784Z,1.20
2023-05-02T12:11:15.653Z,1.30
2023-05-02T12:13:47.821Z,1.27
2023-05-02T12:16:15.317Z,1.60
2023-05-02T12:18:42.629Z,1.20
2023-05-02T12:21:10.008Z,1.43
2023-05-02T12:23:37.943Z,1.43
2023-05-02T12:26:22.735Z,1.40
2023-05-02T12:28:54.694Z,1.50
2023-05-02T12:31:22.043Z,0.93
2023-05-02T12:33:51.353Z,1.20
2023-05-02T12:36:21.619Z,1.30
2023-05-02T12:38:53.688Z,1.30
2023-05-02T12:41:43.869Z,1.30
2023-05-02T12:44:10.947Z,1.33
2023-05-02T12:46:38.733Z,1.03
2023-05-02T12:49:10.181Z,1.53
2023-05-02T12:51:39.898Z,0.87
2023-05-02T12:54:07.481Z,1.30
2023-05-02T12:56:41.844Z,1.03
2023-05-02T12:59:09.763Z,1.43
2023-05-02T13:01:37.587Z,1.10
2023-05-02T13:04:06.124Z,1.10
2023-05-02T13:06:35.456Z,1.10
2023-05-02T13:09:02.660Z,1.00
2023-05-02T13:11:29.467Z,1.23
2023-05-02T13:13:56.617Z,1.10
2023-05-02T13:16:26.174Z,1.07
2023-05-02T13:18:55.088Z,1.10
2023-05-02T13:21:21.970Z,1.13
2023-05-02T13:23:51.153Z,1.23
2023-05-02T13:26:18.740Z,1.23
2023-05-02T13:28:46.362Z,1.07
2023-05-02T13:31:13.972Z,1.10
2023-05-02T13:33:40.788Z,1.30
2023-05-02T13:36:08.370Z,1.10
2023-05-02T13:38:35.254Z,1.20
2023-05-02T13:41:02.069Z,1.20
2023-05-02T13:43:29.712Z,1.87
2023-05-02T13:45:56.688Z,0.83
2023-05-02T13:48:23.779Z,1.37
2023-05-02T13:50:50.885Z,1.00
2023-05-02T13:53:18.439Z,1.10
2023-05-02T13:55:46.329Z,0.90
2023-05-02T13:58:13.226Z,0.83
2023-05-02T14:00:40.075Z,1.23
2023-05-02T14:03:07.133Z,0.93
2023-05-02T14:05:34.850Z,1.23
2023-05-02T14:08:03.027Z,0.90
2023-05-02T14:10:31.404Z,0.90
2023-05-02T14:12:59.005Z,1.03
2023-05-02T14:15:28.077Z,1.00
2023-05-02T14:17:55.816Z,1.13
2023-05-02T14:20:23.590Z,0.70
2023-05-02T14:22:50.694Z,1.10
2023-05-02T14:25:20.917Z,1.40
2023-05-02T14:27:47.774Z,1.23
2023-05-02T14:30:14.624Z,1.40
2023-05-02T14:32:41.470Z,1.00
2023-05-02T14:35:09.083Z,1.37
2023-05-02T14:37:36.730Z,1.00
2023-05-02T14:40:04.616Z,1.30
2023-05-02T14:42:32.855Z,1.50
2023-05-02T14:45:02.296Z,1.30
2023-05-02T14:47:33.228Z,1.30
2023-05-02T14:50:04.011Z,1.33
2023-05-02T14:52:31.083Z,1.50
2023-05-02T14:55:02.298Z,1.60
2023-05-02T14:57:30.372Z,1.27
2023-05-02T14:59:57.980Z,1.07
2023-05-02T15:02:26.191Z,1.13
2023-05-02T15:04:53.083Z,1.60
2023-05-02T15:07:20.723Z,1.93
2023-05-02T15:09:50.326Z,1.80
2023-05-02T15:12:17.087Z,1.60
2023-05-02T15:14:43.890Z,2.37
2023-05-02T15:17:10.743Z,2.03
2023-05-02T15:19:37.626Z,1.80
2023-05-02T15:22:05.115Z,1.33
2023-05-02T15:24:32.586Z,1.57
2023-05-02T15:27:00.442Z,1.50
2023-05-02T15:29:28.154Z,1.30
2023-05-02T15:31:55.756Z,1.63
2023-05-02T15:34:23.358Z,1.23
2023-05-02T15:36:52.430Z,1.80
2023-05-02T15:39:19.379Z,1.07
2023-05-02T15:41:47.996Z,1.20
2023-05-02T15:44:14.846Z,1.30
2023-05-02T15:46:46.796Z,1.20
2023-05-02T15:49:21.256Z,1.20
2023-05-02T15:51:48.182Z,1.43
2023-05-02T15:54:15.031Z,1.20
2023-05-02T15:56:42.048Z,1.20
2023-05-02T15:59:08.887Z,1.40
2023-05-02T16:01:38.719Z,1.50
2023-05-02T16:04:07.520Z,1.30
2023-05-02T16:06:36.320Z,1.40
2023-05-02T16:09:04.118Z,1.40
2023-05-02T16:11:31.356Z,1.20
2023-05-02T16:14:00.777Z,1.40
2023-05-02T16:16:35.752Z,1.30
2023-05-02T16:19:02.590Z,1.30
2023-05-02T16:21:29.537Z,1.10
2023-05-02T16:23:56.502Z,1.10
2023-05-02T16:26:23.432Z,1.33
2023-05-02T16:28:51.224Z,1.20
2023-05-02T16:31:21.414Z,1.37
2023-05-02T16:33:52.038Z,1.47
2023-05-02T16:36:22.309Z,1.57
2023-05-02T16:38:49.997Z,1.37
2023-05-02T16:41:20.259Z,1.50
2023-05-02T16:43:48.293Z,1.77
2023-05-02T16:46:15.121Z,1.30
2023-05-02T16:48:42.978Z,1.90
2023-05-02T16:51:10.935Z,1.23
2023-05-02T16:53:37.826Z,1.37
2023-05-02T16:56:05.599Z,1.13
2023-05-02T16:58:32.426Z,1.17
2023-05-02T17:01:01.059Z,1.70
2023-05-02T17:03:28.968Z,1.60
2023-05-02T17:06:01.876Z,1.40
2023-05-02T17:08:31.262Z,1.30
2023-05-02T17:10:58.102Z,1.50
2023-05-02T17:13:24.939Z,1.47
2023-05-02T17:15:53.738Z,1.47
2023-05-02T17:18:20.675Z,1.73
2023-05-02T17:20:47.731Z,1.67
2023-05-02T17:23:14.794Z,1.60
2023-05-02T17:25:42.195Z,1.83
2023-05-02T17:28:09.486Z,1.60
2023-05-02T17:30:39.708Z,1.70
2023-05-02T17:33:06.752Z,1.70
2023-05-02T17:35:33.962Z,1.73
2023-05-02T17:38:03.225Z,1.60
2023-05-02T17:40:30.634Z,1.83
2023-05-02T17:42:58.852Z,1.50
2023-05-02T17:45:29.664Z,1.77
2023-05-02T17:47:58.297Z,1.53
2023-05-02T17:50:25.313Z,1.50
2023-05-02T17:52:52.233Z,1.50
2023-05-02T17:55:19.455Z,1.20
2023-05-02T17:57:46.624Z,2.20
2023-05-02T18:00:14.700Z,1.73
2023-05-02T18:02:41.818Z,1.80
2023-05-02T18:05:09.584Z,1.60
2023-05-02T18:07:37.292Z,1.40
2023-05-02T18:10:05.347Z,2.00
2023-05-02T18:12:33.705Z,1.57
2023-05-02T18:15:02.034Z,1.50
2023-05-02T18:17:29.355Z,1.40
2023-05-02T18:19:56.241Z,1.83
2023-05-02T18:22:23.903Z,1.60
2023-05-02T18:24:50.830Z,1.50
2023-05-02T18:27:17.820Z,1.80
2023-05-02T18:29:49.949Z,1.70
2023-05-02T18:32:16.789Z,1.60
2023-05-02T18:34:43.677Z,2.10
2023-05-02T18:37:11.476Z,1.63
2023-05-02T18:39:38.840Z,1.80
2023-05-02T18:42:06.649Z,2.00
2023-05-02T18:44:34.363Z,1.93
2023-05-02T18:47:02.044Z,1.90
2023-05-02T18:49:29.537Z,1.47
2023-05-02T18:51:57.359Z,1.93
2023-05-02T18:54:26.199Z,1.90
2023-05-02T18:56:53.120Z,1.40
2023-05-02T18:59:22.085Z,1.67
2023-05-02T19:01:48.938Z,1.80
2023-05-02T19:04:15.864Z,1.67
2023-05-02T19:06:42.937Z,1.53
2023-05-02T19:09:09.798Z,1.83
2023-05-02T19:11:40.061Z,1.87
2023-05-02T19:14:07.259Z,1.10
2023-05-02T19:16:36.099Z,1.73
2023-05-02T19:19:06.812Z,1.33
2023-05-02T19:21:36.963Z,1.87
2023-05-02T19:24:04.220Z,1.50
2023-05-02T19:26:31.075Z,1.60
2023-05-02T19:28:57.927Z,1.47
2023-05-02T19:31:25.066Z,1.50
2023-05-02T19:33:52.194Z,1.27
2023-05-02T19:36:20.094Z,1.37
2023-05-02T19:38:54.480Z,1.37
2023-05-02T19:41:22.299Z,1.10
2023-05-02T19:43:49.289Z,0.90
2023-05-02T19:46:17.196Z,1.30
2023-05-02T19:48:45.202Z,1.60
2023-05-02T19:51:12.687Z,1.30
2023-05-02T19:53:40.314Z,1.53
2023-05-02T19:56:08.560Z,0.93
2023-05-02T19:58:35.615Z,1.77
2023-05-02T20:01:03.385Z,2.10
2023-05-02T20:03:30.437Z,1.47
2023-05-02T20:05:58.577Z,1.97
2023-05-02T20:08:27.740Z,1.60
2023-05-02T20:10:55.878Z,1.80
2023-05-02T20:13:23.517Z,1.60
2023-05-02T20:15:51.137Z,1.50
2023-05-02T20:18:21.248Z,1.60
2023-05-02T20:20:48.819Z,1.93
2023-05-02T20:23:16.701Z,2.00
2023-05-02T20:25:47.476Z,1.90
2023-05-02T20:28:14.462Z,1.90
2023-05-02T20:30:44.159Z,1.70
2023-05-02T20:33:16.244Z,1.50
2023-05-02T20:35:44.464Z,1.40
2023-05-02T20:38:12.505Z,1.30
2023-05-02T20:40:40.750Z,1.30
2023-05-02T20:43:08.863Z,1.67
2023-05-02T20:45:36.071Z,1.27
2023-05-02T20:48:07.169Z,1.00
2023-05-02T20:50:34.343Z,1.50
2023-05-02T20:53:01.447Z,1.07
2023-05-02T20:55:28.620Z,0.90
2023-05-02T20:57:56.111Z,1.50
2023-05-02T21:00:22.977Z,1.63
2023-05-02T21:02:50.042Z,1.37
2023-05-02T21:05:17.055Z,1.00
2023-05-02T21:07:45.077Z,0.97
2023-05-02T21:10:12.086Z,1.10
2023-05-02T21:12:39.566Z,1.17
2023-05-02T21:15:08.505Z,0.90
2023-05-02T21:17:38.651Z,1.23
2023-05-02T21:20:06.537Z,1.23
2023-05-02T21:22:34.400Z,1.00
2023-05-02T21:25:01.214Z,1.10
2023-05-02T21:27:28.148Z,0.93
2023-05-02T21:29:54.985Z,0.80
2023-05-02T21:32:22.460Z,0.83
2023-05-02T21:34:49.336Z,1.00
2023-05-02T21:37:16.196Z,1.10
2023-05-02T21:39:43.638Z,0.90
2023-05-02T21:42:11.013Z,1.00
2023-05-02T21:44:39.119Z,1.00
2023-05-02T21:47:06.663Z,0.90
2023-05-02T21:49:34.215Z,1.27
2023-05-02T21:52:01.571Z,1.00
2023-05-02T21:54:29.066Z,0.77
2023-05-02T21:56:56.600Z,1.00
2023-05-02T21:59:24.230Z,1.00
2023-05-02T22:01:51.879Z,0.90
2023-05-02T22:04:20.193Z,0.83
2023-05-02T22:06:53.466Z,1.00
2023-05-02T22:09:22.058Z,1.03
2023-05-02T22:11:48.919Z,1.40
2023-05-02T22:14:16.150Z,0.97
2023-05-02T22:16:45.653Z,0.90
2023-05-02T22:19:14.591Z,1.10
2023-05-02T22:21:41.630Z,1.10
2023-05-02T22:24:08.907Z,0.97
2023-05-02T22:26:36.753Z,0.83
2023-05-02T22:29:03.618Z,0.90
2023-05-02T22:31:31.225Z,0.87
2023-05-02T22:33:58.125Z,0.90
2023-05-02T22:36:25.012Z,0.90
2023-05-02T22:38:52.535Z,0.93
2023-05-02T22:41:20.087Z,0.97
2023-05-02T22:43:48.652Z,0.93
2023-05-02T22:46:15.658Z,0.90
2023-05-02T22:48:43.091Z,1.10
2023-05-02T22:51:10.627Z,1.30
2023-05-02T22:53:38.191Z,0.73
2023-05-02T22:56:06.024Z,1.07
2023-05-02T22:58:33.747Z,1.00
2023-05-02T23:01:01.850Z,1.30
2023-05-02T23:03:29.327Z,0.90
2023-05-02T23:05:56.951Z,0.80
2023-05-02T23:08:24.318Z,0.70
2023-05-02T23:10:52.157Z,0.83
2023-05-02T23:13:19.604Z,0.90
2023-05-02T23:15:47.270Z,0.90
2023-05-02T23:18:14.778Z,1.00
2023-05-02T23:20:42.336Z,1.00
2023-05-02T23:23:10.113Z,0.70
2023-05-02T23:25:37.795Z,0.90
2023-05-02T23:28:05.776Z,0.80
2023-05-02T23:30:33.197Z,0.80
2023-05-02T23:33:00.977Z,0.90
2023-05-02T23:35:28.213Z,0.63
2023-05-02T23:37:55.672Z,0.70
2023-05-02T23:40:23.166Z,0.80
2023-05-02T23:42:52.034Z,0.90
2023-05-02T23:45:19.856Z,0.70
2023-05-02T23:47:47.013Z,0.80
2023-05-02T23:50:14.204Z,0.80
2023-05-02T23:52:41.848Z,0.80
2023-05-02T23:55:10.508Z,0.80
2023-05-02T23:57:37.698Z,0.73
